createdAt,value
2023-01-29T00:03:42.696Z,74.91
2023-01-29T00:09:02.032Z,75.33
2023-01-29T00:14:21.728Z,75.58
2023-01-29T00:19:41.135Z,76.19
2023-01-29T00:25:00.505Z,76.18
2023-01-29T00:30:20.233Z,77.18
2023-01-29T00:35:38.732Z,77.25
2023-01-29T00:40:57.800Z,77.25
2023-01-29T00:46:16.840Z,76.94
2023-01-29T00:51:35.847Z,76.92
2023-01-29T00:56:55.340Z,78
2023-01-29T01:02:15.714Z,76.78
2023-01-29T01:07:35.164Z,77.47
2023-01-29T01:12:53.985Z,77.51
2023-01-29T01:19:28.168Z,76.9
2023-01-29T01:23:34.044Z,77.33
2023-01-29T01:28:53.053Z,78
2023-01-29T01:34:12.390Z,77.24
2023-01-29T01:39:32.208Z,76.85
2023-01-29T01:44:51.023Z,75.92
2023-01-29T01:50:10.383Z,77.36
2023-01-29T01:55:29.565Z,76.46
2023-01-29T02:00:48.936Z,77.22
2023-01-29T02:06:07.863Z,76.22
2023-01-29T02:11:26.854Z,76.19
2023-01-29T02:16:45.855Z,77.4
2023-01-29T02:22:05.514Z,75.9
2023-01-29T02:27:25.122Z,75.73
2023-01-29T02:32:44.611Z,77.36
2023-01-29T02:38:04.245Z,77.23
2023-01-29T02:43:23.227Z,78.01
2023-01-29T02:48:42.164Z,77.17
2023-01-29T02:54:01.309Z,76.42
2023-01-29T02:59:20.636Z,77.56
2023-01-29T03:04:40.098Z,77.79
2023-01-29T03:09:57.778Z,76.39
2023-01-29T03:15:16.790Z,77.03
2023-01-29T03:20:36.251Z,76.58
2023-01-29T03:25:55.598Z,76.46
2023-01-29T03:31:14.915Z,76.24
2023-01-29T03:36:33.669Z,76.44
2023-01-29T03:41:53.233Z,77.15
2023-01-29T03:47:12.387Z,77.51
2023-01-29T03:52:31.724Z,79.44
2023-01-29T03:57:50.667Z,78.21
2023-01-29T04:04:24.939Z,77.85
2023-01-29T04:08:30.704Z,77.51
2023-01-29T04:13:50.706Z,78.44
2023-01-29T04:19:10.101Z,78.29
2023-01-29T04:24:29.880Z,78.14
2023-01-29T04:29:49.229Z,78.14
2023-01-29T04:35:08.330Z,77.83
2023-01-29T04:40:27.529Z,78.91
2023-01-29T04:45:46.599Z,77.71
2023-01-29T04:51:05.695Z,78.67
2023-01-29T04:56:24.737Z,78.04
2023-01-29T05:01:43.703Z,78.04
2023-01-29T05:07:02.438Z,76.83
2023-01-29T05:12:21.276Z,77.19
2023-01-29T05:17:40.741Z,78.33
2023-01-29T05:23:00.211Z,77.44
2023-01-29T05:28:19.818Z,78.46
2023-01-29T05:33:39.031Z,78.89
2023-01-29T05:38:57.836Z,78.24
2023-01-29T05:44:17.113Z,77.92
2023-01-29T05:49:36.739Z,77.01
2023-01-29T05:54:54.518Z,78.04
2023-01-29T06:00:14.142Z,78.42
2023-01-29T06:05:33.508Z,77.91
2023-01-29T06:10:52.691Z,78.96
2023-01-29T06:16:12.251Z,79.31
2023-01-29T06:22:46.402Z,77.81
2023-01-29T06:26:52.171Z,77.96
2023-01-29T06:32:11.813Z,77.67
2023-01-29T06:37:31.258Z,78.68
2023-01-29T06:42:50.971Z,78.79
2023-01-29T06:48:10.245Z,79.67
2023-01-29T06:53:29.735Z,78.28
2023-01-29T06:58:48.915Z,77.91
2023-01-29T07:04:08.176Z,78.46
2023-01-29T07:09:27.735Z,77.69
2023-01-29T07:14:47.326Z,78.17
2023-01-29T07:20:06.280Z,77.96
2023-01-29T07:25:25.678Z,78.04
2023-01-29T07:30:45.126Z,77.86
2023-01-29T07:36:04.775Z,78.26
2023-01-29T07:41:24.490Z,77.25
2023-01-29T07:46:43.844Z,79.28
2023-01-29T07:52:03.467Z,77.92
2023-01-29T07:57:23.199Z,77.44
2023-01-29T08:02:42.196Z,77.4
2023-01-29T08:08:06.782Z,77.62
2023-01-29T08:13:20.232Z,78.24
2023-01-29T08:18:39.060Z,77.22
2023-01-29T08:23:57.995Z,76.51
2023-01-29T08:29:17.737Z,76.48
2023-01-29T08:34:37.358Z,76.6
2023-01-29T08:39:56.260Z,76.62
2023-01-29T08:45:15.819Z,75.68
2023-01-29T08:50:35.540Z,76.49
2023-01-29T08:55:54.957Z,75.87
2023-01-29T09:01:14.485Z,75.25
2023-01-29T09:06:34.166Z,74.66
2023-01-29T09:11:53.071Z,74.51
2023-01-29T09:17:12.592Z,74.3
2023-01-29T09:22:31.762Z,72.69
2023-01-29T09:27:51.465Z,73
2023-01-29T09:33:10.798Z,71.16
2023-01-29T09:38:30.420Z,68.15
2023-01-29T09:44:15.395Z,67.12
2023-01-29T09:49:35.078Z,65.21
2023-01-29T09:54:54.337Z,65.35
2023-01-29T10:00:13.574Z,65.12
2023-01-29T10:05:33.253Z,66.19
2023-01-29T10:10:52.241Z,66.64
2023-01-29T10:16:11.653Z,66.8
2023-01-29T10:21:31.370Z,66.56
2023-01-29T10:26:50.489Z,67.48
2023-01-29T10:32:10.382Z,66.94
2023-01-29T10:37:29.562Z,67.4
2023-01-29T10:42:48.939Z,68.42
2023-01-29T10:48:08.307Z,67.58
2023-01-29T10:53:27.658Z,67.96
2023-01-29T10:58:46.960Z,67.47
2023-01-29T11:04:06.411Z,69.94
2023-01-29T11:09:25.312Z,70.36
2023-01-29T11:14:44.359Z,68.67
2023-01-29T11:20:03.762Z,68.57
2023-01-29T11:25:23.365Z,69.03
2023-01-29T11:30:43.125Z,68.08
2023-01-29T11:36:02.426Z,67.46
2023-01-29T11:41:21.295Z,68.56
2023-01-29T11:46:40.516Z,68.14
2023-01-29T11:51:59.387Z,69.24
2023-01-29T11:57:20.096Z,68.12
2023-01-29T12:02:38.330Z,68.9
2023-01-29T12:07:57.822Z,67.42
2023-01-29T12:14:32.003Z,67.26
2023-01-29T12:18:36.973Z,68.14
2023-01-29T12:23:56.551Z,67.26
2023-01-29T12:29:15.379Z,69.62
2023-01-29T12:34:34.272Z,68.87
2023-01-29T12:41:08.477Z,69.37
2023-01-29T12:45:13.981Z,70.25
2023-01-29T12:50:33.566Z,68.76
2023-01-29T12:55:53.378Z,69.11
2023-01-29T13:01:12.269Z,68.72
2023-01-29T13:06:31.435Z,67.92
2023-01-29T13:11:51.004Z,68.94
2023-01-29T13:17:10.649Z,70.19
2023-01-29T13:22:29.809Z,70.12
2023-01-29T13:27:48.662Z,71.01
2023-01-29T13:33:08.481Z,71.04
2023-01-29T13:38:26.848Z,71.74
2023-01-29T13:43:46.241Z,72.94
2023-01-29T13:49:05.828Z,71.03
2023-01-29T13:54:25.524Z,68.44
2023-01-29T13:59:44.975Z,68.4
2023-01-29T14:06:19.173Z,67.15
2023-01-29T14:10:24.327Z,68.81
2023-01-29T14:15:43.932Z,68.94
2023-01-29T14:21:03.453Z,68.69
2023-01-29T14:26:22.798Z,67.81
2023-01-29T14:31:41.332Z,68.56
2023-01-29T14:38:39.915Z,67.51
2023-01-29T14:42:21.845Z,68.31
2023-01-29T14:47:41.419Z,70.18
2023-01-29T14:53:00.332Z,71.22
2023-01-29T14:58:19.499Z,70.22
2023-01-29T15:03:39.235Z,70.29
2023-01-29T15:08:58.943Z,70.23
2023-01-29T15:14:18.531Z,71.01
2023-01-29T15:19:38.134Z,71.39
2023-01-29T15:24:57.683Z,71.21
2023-01-29T15:30:16.895Z,71.12
2023-01-29T15:38:50.009Z,71.28
2023-01-29T15:40:53.922Z,71.43
2023-01-29T15:46:12.913Z,72.68
2023-01-29T15:51:31.744Z,73.44
2023-01-29T15:56:50.689Z,74.66
2023-01-29T16:02:09.967Z,75.92
2023-01-29T16:07:29.119Z,76.76
2023-01-29T16:12:48.311Z,77.65
2023-01-29T16:18:07.905Z,77.86
2023-01-29T16:23:26.943Z,78.22
2023-01-29T16:28:45.973Z,78.51
2023-01-29T16:34:04.862Z,78.73
2023-01-29T16:39:23.979Z,78.97
2023-01-29T16:44:43.760Z,79.17
2023-01-29T16:51:17.950Z,79.39
2023-01-29T16:55:23.653Z,79.78
2023-01-29T17:00:43.219Z,80.33
2023-01-29T17:06:02.058Z,80.36
2023-01-29T17:11:21.025Z,80.22
2023-01-29T17:16:40.369Z,80.67
2023-01-29T17:21:59.896Z,81.05
2023-01-29T17:27:19.691Z,81.64
2023-01-29T17:32:43.644Z,82.33
2023-01-29T17:37:59.288Z,82.15
2023-01-29T17:43:18.508Z,81.83
2023-01-29T17:48:37.865Z,81.49
2023-01-29T17:53:57.325Z,82.13
2023-01-29T17:59:16.671Z,82.06
2023-01-29T18:04:37.776Z,82.09
2023-01-29T18:09:54.880Z,82.08
2023-01-29T18:15:14.422Z,82.1
2023-01-29T18:20:33.952Z,82.15
2023-01-29T18:25:53.294Z,82.51
2023-01-29T18:31:14.204Z,82.35
2023-01-29T18:36:31.946Z,82.44
2023-01-29T18:41:51.255Z,82.47
2023-01-29T18:47:10.352Z,82.49
2023-01-29T18:52:29.209Z,82.46
2023-01-29T18:58:26.404Z,82.83
2023-01-29T19:03:07.433Z,83.74
2023-01-29T19:08:26.409Z,83.96
2023-01-29T19:13:45.349Z,84.25
2023-01-29T19:19:04.731Z,84.85
2023-01-29T19:24:23.870Z,84.73
2023-01-29T19:29:43.334Z,84.83
2023-01-29T19:35:03.182Z,84.32
2023-01-29T19:40:22.757Z,85.03
2023-01-29T19:45:50.018Z,85.55
2023-01-29T19:51:01.659Z,85.44
2023-01-29T19:56:21.475Z,84.74
2023-01-29T20:01:41.034Z,85.14
2023-01-29T20:07:00.691Z,84.78
2023-01-29T20:12:19.848Z,84.87
2023-01-29T20:17:39.197Z,84.32
2023-01-29T20:22:58.097Z,83.67
2023-01-29T20:28:17.056Z,83.28
2023-01-29T20:33:39.142Z,83.15
2023-01-29T20:38:55.871Z,83.35
2023-01-29T20:44:14.724Z,83.25
2023-01-29T20:49:34.015Z,83.4
2023-01-29T20:54:53.577Z,83.46
2023-01-29T21:00:13.304Z,83.38
2023-01-29T21:05:32.257Z,83.93
2023-01-29T21:10:51.517Z,84
2023-01-29T21:16:11.105Z,84.34
2023-01-29T21:21:30.591Z,84.3
2023-01-29T21:26:50.259Z,84.33
2023-01-29T21:32:10.003Z,84.44
2023-01-29T21:37:29.553Z,85.01
2023-01-29T21:42:48.986Z,85.11
2023-01-29T21:48:07.951Z,85.36
2023-01-29T21:53:27.773Z,85.07
2023-01-29T21:58:47.587Z,85.5
2023-01-29T22:04:06.653Z,85.47
2023-01-29T22:09:26.243Z,85.63
2023-01-29T22:14:45.141Z,85.93
2023-01-29T22:25:22.761Z,86.34
2023-01-29T22:30:42.040Z,86.68
2023-01-29T22:36:01.393Z,86.97
2023-01-29T22:41:20.658Z,87.19
2023-01-29T22:46:39.748Z,87.25
2023-01-29T22:51:58.702Z,87.74
2023-01-29T22:57:18.140Z,87.95
2023-01-29T23:02:37.553Z,87.94
2023-01-29T23:07:57.308Z,87.8
2023-01-29T23:13:17.229Z,87.3
2023-01-29T23:18:36.173Z,87.11
2023-01-29T23:23:55.028Z,87.32
2023-01-29T23:29:14.760Z,87.64
2023-01-29T23:34:34.494Z,87.68
2023-01-29T23:39:53.331Z,87.42
2023-01-29T23:45:13.153Z,86.96
2023-01-29T23:50:32.691Z,87.13
2023-01-29T23:57:06.841Z,87.65
